Información del aeropuerto EIDL

Información de pista
Pista 03 Longitud 4908 ft Anchura 98 ft
Elevación 10 ft Umbral 656 ft Rumbo 20
Pista 21 Longitud 4908 ft Anchura 98 ft
Elevación 30 ft Umbral 656 ft Rumbo 200
Frecuencias del aeropuerto
Tipo ATIS Nombre ATIS Frecuencia 129.925 MHZ
Tipo GND Nombre GND Frecuencia 129.8 MHZ
Tipo TWR Nombre TWR Frecuencia 129.8 MHZ
Radioayudas del aeropuerto
Tipo NDB Nombre Donegal Frecuencia 361 KHZ
Información meteorológica del aeropuerto y NOTAM
ADDS - METARS form results

(0041 UTC 06 May 2021)
Data provider http://aviationweather.gov/metar/data/
 
Forecast for: AMD
Text: TAF AMD EIDL 051927Z 0519/0603 33014KT 9999 FEW025 SCT045
Forecast period: 1900 UTC 05 May 2021 to 0300 UTC 06 May 2021
Forecast type: FROM: standard forecast or significant change
Winds: from the NNW (330 degrees) at 16 MPH (14 knots; 7.2 m/s)
Visibility: 6 or more miles (10+ km)
Ceiling: at least 12,000 feet AGL
Clouds: few clouds at 2500 feet AGL
scattered clouds at 4500 feet AGL
Weather: no significant weather forecast for this period
Text: PROB30
Forecast period: 1900 to 2000 UTC 05 May 2021
Forecast type: TEMPORARY: The following changes expected for less than half the time period
Winds: from the NNE (20 degrees) at 17 MPH (15 knots; 7.7 m/s)
gusting to 30 MPH (26 knots; 13.4 m/s)
Visibility: missing
Ceiling: 2000 feet AGL
Clouds: few clouds at 1800 feet AGL
broken clouds at 2000 feet AGL
Weather: -SHRA  (light rain showers)